createdAt,value
2023-08-06T00:01:36.521Z,58.04
2023-08-06T00:04:03.477Z,58.18
2023-08-06T00:06:30.413Z,57.78
2023-08-06T00:08:57.160Z,57.51
2023-08-06T00:11:24.118Z,57.67
2023-08-06T00:13:50.841Z,57.29
2023-08-06T00:16:17.819Z,57.44
2023-08-06T00:18:44.536Z,57.29
2023-08-06T00:21:13.537Z,57.16
2023-08-06T00:23:41.384Z,57.28
2023-08-06T00:26:08.166Z,56.98
2023-08-06T00:28:34.841Z,56.82
2023-08-06T00:31:01.651Z,56.67
2023-08-06T00:33:28.928Z,56.58
2023-08-06T00:35:55.736Z,56.67
2023-08-06T00:38:22.381Z,56.90
2023-08-06T00:40:49.098Z,57.02
2023-08-06T00:43:15.704Z,57.01
2023-08-06T00:45:43.366Z,56.74
2023-08-06T00:48:10.291Z,56.83
2023-08-06T00:50:37.026Z,57.15
2023-08-06T00:53:03.978Z,57.30
2023-08-06T00:55:31.378Z,57.56
2023-08-06T00:57:58.642Z,57.54
2023-08-06T01:00:26.254Z,57.49
2023-08-06T01:02:54.661Z,57.93
2023-08-06T01:05:22.747Z,58.07
2023-08-06T01:07:55.307Z,58.87
2023-08-06T01:10:34.053Z,58.99
2023-08-06T01:13:38.397Z,59.31
2023-08-06T01:16:07.056Z,59.00
2023-08-06T01:18:34.875Z,58.83
2023-08-06T01:21:02.101Z,59.16
2023-08-06T01:23:29.179Z,58.82
2023-08-06T01:26:04.022Z,59.02
2023-08-06T01:29:07.785Z,59.33
2023-08-06T01:31:43.025Z,59.68
2023-08-06T01:34:17.166Z,59.79
2023-08-06T01:36:44.184Z,60.36
2023-08-06T01:39:11.357Z,60.47
2023-08-06T01:41:38.296Z,59.85
2023-08-06T01:44:05.327Z,59.85
2023-08-06T01:46:32.063Z,59.63
2023-08-06T01:48:58.959Z,59.25
2023-08-06T01:51:25.731Z,59.46
2023-08-06T01:53:52.428Z,59.82
2023-08-06T01:56:20.066Z,59.29
2023-08-06T01:58:46.844Z,59.18
2023-08-06T02:01:13.550Z,59.24
2023-08-06T02:03:40.230Z,59.72
2023-08-06T02:06:07.148Z,59.82
2023-08-06T02:08:33.912Z,59.64
2023-08-06T02:11:00.916Z,59.68
2023-08-06T02:13:27.678Z,59.63
2023-08-06T02:15:54.783Z,59.83
2023-08-06T02:18:21.452Z,59.59
2023-08-06T02:20:58.728Z,59.66
2023-08-06T02:23:26.370Z,59.26
2023-08-06T02:26:01.228Z,59.70
2023-08-06T02:28:28.061Z,59.65
2023-08-06T02:30:54.742Z,59.55
2023-08-06T02:33:21.485Z,58.77
2023-08-06T02:35:48.374Z,59.83
2023-08-06T02:38:15.050Z,59.46
2023-08-06T02:40:48.089Z,59.17
2023-08-06T02:43:16.051Z,59.22
2023-08-06T02:45:42.914Z,59.38
2023-08-06T02:48:09.760Z,59.48
2023-08-06T02:50:40.844Z,59.68
2023-08-06T02:53:08.253Z,59.82
2023-08-06T02:55:36.410Z,59.96
2023-08-06T02:58:03.450Z,59.52
2023-08-06T03:00:30.619Z,59.85
2023-08-06T03:02:57.398Z,59.98
2023-08-06T03:05:24.200Z,59.94
2023-08-06T03:07:51.236Z,60.42
2023-08-06T03:10:17.940Z,60.33
2023-08-06T03:12:44.701Z,60.36
2023-08-06T03:15:11.483Z,59.65
2023-08-06T03:17:38.337Z,59.88
2023-08-06T03:20:05.662Z,60.42
2023-08-06T03:22:32.292Z,60.77
2023-08-06T03:24:58.961Z,61.01
2023-08-06T03:27:25.607Z,60.65
2023-08-06T03:29:52.793Z,60.60
2023-08-06T03:32:19.485Z,60.40
2023-08-06T03:34:46.190Z,60.38
2023-08-06T03:37:13.013Z,61.03
2023-08-06T03:39:39.958Z,61.07
2023-08-06T03:42:06.834Z,61.04
2023-08-06T03:44:33.582Z,59.82
2023-08-06T03:47:00.369Z,59.29
2023-08-06T03:49:27.110Z,58.84
2023-08-06T03:51:53.993Z,58.99
2023-08-06T03:54:20.884Z,58.52
2023-08-06T03:56:47.560Z,59.66
2023-08-06T03:59:14.399Z,60.54
2023-08-06T04:01:41.340Z,61.13
2023-08-06T04:04:08.033Z,61.53
2023-08-06T04:06:34.651Z,62.26
2023-08-06T04:09:01.561Z,62.99
2023-08-06T04:11:28.368Z,63.41
2023-08-06T04:13:56.400Z,65.03
2023-08-06T04:16:23.079Z,65.47
2023-08-06T04:18:50.206Z,65.99
2023-08-06T04:21:16.906Z,66.27
2023-08-06T04:23:43.523Z,66.36
2023-08-06T04:26:10.219Z,65.72
2023-08-06T04:28:36.910Z,66.44
2023-08-06T04:31:03.693Z,65.84
2023-08-06T04:33:30.483Z,66.14
2023-08-06T04:35:57.744Z,66.53
2023-08-06T04:38:26.520Z,66.15
2023-08-06T04:40:53.961Z,66.70
2023-08-06T04:43:20.859Z,66.53
2023-08-06T04:45:51.782Z,66.61
2023-08-06T04:48:18.892Z,66.73
2023-08-06T04:50:46.639Z,67.25
2023-08-06T04:53:13.423Z,67.66
2023-08-06T04:55:40.482Z,67.93
2023-08-06T04:58:07.282Z,67.66
2023-08-06T05:00:34.811Z,67.30
2023-08-06T05:03:02.571Z,67.64
2023-08-06T05:05:29.884Z,67.71
2023-08-06T05:07:58.312Z,67.21
2023-08-06T05:10:28.758Z,66.98
2023-08-06T05:12:55.547Z,67.27
2023-08-06T05:15:22.608Z,66.70
2023-08-06T05:17:49.546Z,66.99
2023-08-06T05:20:17.022Z,66.71
2023-08-06T05:22:44.653Z,66.78
2023-08-06T05:25:15.718Z,66.26
2023-08-06T05:27:42.727Z,66.47
2023-08-06T05:30:10.698Z,65.82
2023-08-06T05:32:37.609Z,66.41
2023-08-06T05:35:04.729Z,66.26
2023-08-06T05:37:37.338Z,66.58
2023-08-06T05:40:05.291Z,66.37
2023-08-06T05:42:32.312Z,66.07
2023-08-06T05:44:58.975Z,66.20
2023-08-06T05:47:25.722Z,65.99
2023-08-06T05:49:52.809Z,65.86
2023-08-06T05:52:19.517Z,65.98
2023-08-06T05:54:46.268Z,65.75
2023-08-06T05:57:12.941Z,66.05
2023-08-06T05:59:41.294Z,66.33
2023-08-06T06:02:08.015Z,66.73
2023-08-06T06:04:35.049Z,66.99
2023-08-06T06:07:01.811Z,66.90
2023-08-06T06:09:28.550Z,66.54
2023-08-06T06:11:55.481Z,67.08
2023-08-06T06:14:22.609Z,66.62
2023-08-06T06:16:49.305Z,66.53
2023-08-06T06:19:15.971Z,65.93
2023-08-06T06:21:42.918Z,66.91
2023-08-06T06:24:09.582Z,66.67
2023-08-06T06:26:36.386Z,67.06
2023-08-06T06:29:03.578Z,66.58
2023-08-06T06:31:30.888Z,66.54
2023-08-06T06:33:57.769Z,66.33
2023-08-06T06:36:25.054Z,66.38
2023-08-06T06:38:51.899Z,66.33
2023-08-06T06:41:18.557Z,65.43
2023-08-06T06:43:45.979Z,65.50
2023-08-06T06:46:12.718Z,65.04
2023-08-06T06:48:40.134Z,65.20
2023-08-06T06:51:07.095Z,65.57
2023-08-06T06:53:33.739Z,65.39
2023-08-06T06:56:04.497Z,65.36
2023-08-06T06:58:31.715Z,65.77
2023-08-06T07:00:58.702Z,65.70
2023-08-06T07:03:25.742Z,66.26
2023-08-06T07:05:52.991Z,65.77
2023-08-06T07:08:19.865Z,66.56
2023-08-06T07:10:46.499Z,66.40
2023-08-06T07:13:13.144Z,66.70
2023-08-06T07:15:39.959Z,66.77
2023-08-06T07:18:06.679Z,66.29
2023-08-06T07:20:35.198Z,66.71
2023-08-06T07:23:01.881Z,66.37
2023-08-06T07:25:28.740Z,66.41
2023-08-06T07:27:55.474Z,66.89
2023-08-06T07:30:22.183Z,66.66
2023-08-06T07:32:48.993Z,66.73
2023-08-06T07:35:15.932Z,66.78
2023-08-06T07:37:43.194Z,67.55
2023-08-06T07:40:10.318Z,67.38
2023-08-06T07:42:37.088Z,67.48
2023-08-06T07:45:04.055Z,67.52
2023-08-06T07:47:30.870Z,67.83
2023-08-06T07:49:57.574Z,67.26
2023-08-06T07:52:24.241Z,67.94
2023-08-06T07:54:51.692Z,67.60
2023-08-06T07:57:18.604Z,68.21
2023-08-06T07:59:45.319Z,68.67
2023-08-06T08:02:12.013Z,68.83
2023-08-06T08:04:38.758Z,69.67
2023-08-06T08:07:05.865Z,69.97
2023-08-06T08:09:32.818Z,69.68
2023-08-06T08:12:02.292Z,70.43
2023-08-06T08:14:30.073Z,70.19
2023-08-06T08:16:57.079Z,70.70
2023-08-06T08:19:23.992Z,71.25
2023-08-06T08:21:51.010Z,71.45
2023-08-06T08:24:20.945Z,71.55
2023-08-06T08:26:48.132Z,71.88
2023-08-06T08:29:15.019Z,71.68
2023-08-06T08:31:41.745Z,72.02
2023-08-06T08:34:08.511Z,71.51
2023-08-06T08:36:35.279Z,71.35
2023-08-06T08:39:02.020Z,71.64
2023-08-06T08:41:32.918Z,71.46
2023-08-06T08:44:01.728Z,71.24
2023-08-06T08:46:34.977Z,71.30
2023-08-06T08:49:03.640Z,71.40
2023-08-06T08:51:31.603Z,71.14
2023-08-06T08:53:58.722Z,70.72
2023-08-06T08:56:26.100Z,71.32
2023-08-06T08:58:54.433Z,71.96
2023-08-06T09:01:23.501Z,71.83
2023-08-06T09:03:53.101Z,71.59
2023-08-06T09:06:22.135Z,71.55
2023-08-06T09:09:05.498Z,71.24
2023-08-06T09:11:40.914Z,71.26
2023-08-06T09:14:09.641Z,71.13
2023-08-06T09:16:37.387Z,71.20
2023-08-06T09:19:11.607Z,71.67
2023-08-06T09:21:42.327Z,71.16
2023-08-06T09:24:13.859Z,71.20
2023-08-06T09:26:42.610Z,71.15
2023-08-06T09:29:12.644Z,71.18
2023-08-06T09:31:47.828Z,71.00
2023-08-06T09:34:19.764Z,71.57
2023-08-06T09:36:48.860Z,71.63
2023-08-06T09:39:18.472Z,70.76
2023-08-06T09:41:45.873Z,71.59
2023-08-06T09:44:24.884Z,70.64
2023-08-06T09:46:53.878Z,70.81
2023-08-06T09:49:24.126Z,70.97
2023-08-06T09:51:53.543Z,71.06
2023-08-06T09:54:26.986Z,70.80
2023-08-06T09:56:56.560Z,71.06
2023-08-06T09:59:27.721Z,70.95
2023-08-06T10:01:57.387Z,71.29
2023-08-06T10:04:25.887Z,71.32
2023-08-06T10:06:55.879Z,71.23
2023-08-06T10:09:23.252Z,71.88
2023-08-06T10:11:54.251Z,71.84
2023-08-06T10:14:32.624Z,72.09
2023-08-06T10:17:00.832Z,72.06
2023-08-06T10:19:28.668Z,72.04
2023-08-06T10:22:15.624Z,71.74
2023-08-06T10:24:55.956Z,72.04
2023-08-06T10:27:34.402Z,72.10
2023-08-06T10:30:23.958Z,71.90
2023-08-06T10:32:52.932Z,72.17
2023-08-06T10:35:44.660Z,71.71
2023-08-06T10:38:16.652Z,71.83
2023-08-06T10:41:04.565Z,72.16
2023-08-06T10:43:34.141Z,72.09
2023-08-06T10:46:03.370Z,72.00
2023-08-06T10:48:40.992Z,71.86
2023-08-06T10:51:18.588Z,72.06
2023-08-06T10:53:51.060Z,71.68
2023-08-06T10:56:27.213Z,71.66
2023-08-06T10:58:58.246Z,71.24
2023-08-06T11:01:25.642Z,71.21
2023-08-06T11:03:54.579Z,71.30
2023-08-06T11:06:22.844Z,71.52
2023-08-06T11:08:51.627Z,71.80
2023-08-06T11:11:19.240Z,72.05
2023-08-06T11:13:50.296Z,71.16
2023-08-06T11:16:19.698Z,71.72
2023-08-06T11:18:47.266Z,71.67
2023-08-06T11:21:14.405Z,72.21
2023-08-06T11:23:41.723Z,72.26
2023-08-06T11:26:09.272Z,72.57
2023-08-06T11:28:36.143Z,72.57
2023-08-06T11:31:05.001Z,72.66
2023-08-06T11:33:32.611Z,72.82
2023-08-06T11:36:01.052Z,72.33
2023-08-06T11:38:31.375Z,72.77
2023-08-06T11:40:58.447Z,71.99
2023-08-06T11:43:25.239Z,72.15
2023-08-06T11:45:54.526Z,72.76
2023-08-06T11:48:21.221Z,72.74
2023-08-06T11:50:47.953Z,72.34
2023-08-06T11:53:16.438Z,72.45
2023-08-06T11:55:43.888Z,72.59
2023-08-06T11:58:15.914Z,72.33
2023-08-06T12:00:43.840Z,72.21
2023-08-06T12:03:11.289Z,71.86
2023-08-06T12:05:39.984Z,72.41
2023-08-06T12:08:06.836Z,72.01
2023-08-06T12:10:34.461Z,71.83
2023-08-06T12:13:02.109Z,70.43
2023-08-06T12:15:30.570Z,69.71
2023-08-06T12:17:58.665Z,70.89
2023-08-06T12:20:25.474Z,71.10
2023-08-06T12:22:53.674Z,70.08
2023-08-06T12:25:20.593Z,70.46
2023-08-06T12:27:47.861Z,71.15
2023-08-06T12:30:15.217Z,71.09
2023-08-06T12:32:42.570Z,70.53
2023-08-06T12:35:09.887Z,70.28
2023-08-06T12:37:37.162Z,70.73
2023-08-06T12:40:23.554Z,69.93
2023-08-06T12:42:54.540Z,70.25
2023-08-06T12:45:24.108Z,69.78
2023-08-06T12:47:51.203Z,69.45
2023-08-06T12:50:18.686Z,68.56
2023-08-06T12:52:46.015Z,68.22
2023-08-06T12:55:12.729Z,67.73
2023-08-06T12:57:51.898Z,67.35
2023-08-06T13:00:24.242Z,66.60
2023-08-06T13:02:51.185Z,66.51
2023-08-06T13:05:17.930Z,66.25
2023-08-06T13:07:45.977Z,67.38
2023-08-06T13:10:12.773Z,68.28
2023-08-06T13:12:39.832Z,67.63
2023-08-06T13:15:07.325Z,66.62
2023-08-06T13:17:34.090Z,68.33
2023-08-06T13:20:00.915Z,67.40
2023-08-06T13:22:27.679Z,67.32
2023-08-06T13:24:54.516Z,69.45
2023-08-06T13:27:21.354Z,68.41
2023-08-06T13:29:48.628Z,68.37
2023-08-06T13:32:15.360Z,68.02
2023-08-06T13:34:42.395Z,65.90
2023-08-06T13:37:09.108Z,66.75
2023-08-06T13:39:35.900Z,66.17
2023-08-06T13:42:03.566Z,66.49
2023-08-06T13:44:30.621Z,67.78
2023-08-06T13:46:57.757Z,68.50
2023-08-06T13:49:24.720Z,68.82
2023-08-06T13:51:51.539Z,69.33
2023-08-06T13:54:18.418Z,69.54
2023-08-06T13:56:45.121Z,69.91
2023-08-06T13:59:14.757Z,70.09
2023-08-06T14:01:50.386Z,70.59
2023-08-06T14:04:18.458Z,71.06
2023-08-06T14:06:45.660Z,70.71
2023-08-06T14:09:15.207Z,71.38
2023-08-06T14:11:42.192Z,71.25
2023-08-06T14:14:09.060Z,70.63
2023-08-06T14:16:36.356Z,70.49
2023-08-06T14:19:03.655Z,69.92
2023-08-06T14:21:30.990Z,67.78
2023-08-06T14:23:57.741Z,67.74
2023-08-06T14:26:24.600Z,67.28
2023-08-06T14:28:55.533Z,68.20
2023-08-06T14:31:22.724Z,67.73
2023-08-06T14:33:49.534Z,66.63
2023-08-06T14:36:16.332Z,65.95
2023-08-06T14:38:53.802Z,65.33
2023-08-06T14:41:25.759Z,65.14
2023-08-06T14:43:53.065Z,65.36
2023-08-06T14:46:19.907Z,66.05
2023-08-06T14:48:46.724Z,66.15
2023-08-06T14:51:13.789Z,65.50
2023-08-06T14:53:40.712Z,64.94
2023-08-06T14:56:07.521Z,65.27
2023-08-06T14:58:34.370Z,66.22
2023-08-06T15:01:01.164Z,65.84
2023-08-06T15:03:29.544Z,65.49
2023-08-06T15:05:56.279Z,64.64
2023-08-06T15:08:23.209Z,65.22
2023-08-06T15:10:55.915Z,65.79
2023-08-06T15:13:22.521Z,67.38
2023-08-06T15:15:50.722Z,68.11
2023-08-06T15:18:17.630Z,68.02
2023-08-06T15:20:44.377Z,67.64
2023-08-06T15:23:11.029Z,68.66
2023-08-06T15:25:37.693Z,67.95
2023-08-06T15:28:04.595Z,67.79
2023-08-06T15:30:31.408Z,66.33
2023-08-06T15:32:58.382Z,64.86
2023-08-06T15:35:25.345Z,65.35
2023-08-06T15:37:51.975Z,64.30
2023-08-06T15:40:18.577Z,63.38
2023-08-06T15:42:45.875Z,63.33
2023-08-06T15:45:12.577Z,63.99
2023-08-06T15:47:41.729Z,63.21
2023-08-06T15:50:09.924Z,63.58
2023-08-06T15:52:37.140Z,63.92
2023-08-06T15:55:06.428Z,63.60
2023-08-06T15:57:34.335Z,63.51
2023-08-06T16:00:02.303Z,63.88
2023-08-06T16:02:29.468Z,62.52
2023-08-06T16:04:57.559Z,62.31
2023-08-06T16:07:24.803Z,63.22
2023-08-06T16:09:52.338Z,62.73
2023-08-06T16:12:20.539Z,63.29
2023-08-06T16:14:47.929Z,62.85
2023-08-06T16:17:15.208Z,61.46
2023-08-06T16:19:42.018Z,61.73
2023-08-06T16:22:08.927Z,61.19
2023-08-06T16:24:38.680Z,61.07
2023-08-06T16:27:05.990Z,59.77
2023-08-06T16:29:32.930Z,59.68
2023-08-06T16:32:01.292Z,60.77
2023-08-06T16:34:28.407Z,61.27
2023-08-06T16:36:55.784Z,61.31
2023-08-06T16:39:25.230Z,61.45
2023-08-06T16:41:51.946Z,62.00
2023-08-06T16:44:18.772Z,61.79
2023-08-06T16:46:45.655Z,62.05
2023-08-06T16:49:12.299Z,61.61
2023-08-06T16:51:39.124Z,60.97
2023-08-06T16:54:05.892Z,60.84
2023-08-06T16:56:32.744Z,60.66
2023-08-06T16:59:01.712Z,60.53
2023-08-06T17:01:28.995Z,61.00
2023-08-06T17:03:58.790Z,60.14
2023-08-06T17:06:26.071Z,59.94
2023-08-06T17:08:52.866Z,59.02
2023-08-06T17:11:19.586Z,59.06
2023-08-06T17:13:46.316Z,58.61
2023-08-06T17:16:13.762Z,58.29
2023-08-06T17:18:41.786Z,58.59
2023-08-06T17:21:08.677Z,58.81
2023-08-06T17:23:35.412Z,58.44
2023-08-06T17:26:02.140Z,58.90
2023-08-06T17:28:28.995Z,58.08
2023-08-06T17:30:57.528Z,58.78
2023-08-06T17:33:25.209Z,58.98
2023-08-06T17:35:53.340Z,58.42
2023-08-06T17:38:21.420Z,58.91
2023-08-06T17:40:54.607Z,59.18
2023-08-06T17:43:21.357Z,59.25
2023-08-06T17:45:48.152Z,58.89
2023-08-06T17:48:17.142Z,59.24
2023-08-06T17:50:47.278Z,58.62
2023-08-06T17:53:14.704Z,59.04
2023-08-06T17:55:41.744Z,58.70
2023-08-06T17:58:08.715Z,59.34
2023-08-06T18:00:35.984Z,59.58
2023-08-06T18:03:02.990Z,59.30
2023-08-06T18:05:32.245Z,59.33
2023-08-06T18:07:59.354Z,58.26
2023-08-06T18:10:26.733Z,58.58
2023-08-06T18:12:53.483Z,58.04
2023-08-06T18:15:20.550Z,57.99
2023-08-06T18:17:48.193Z,58.14
2023-08-06T18:20:15.490Z,58.00
2023-08-06T18:22:42.252Z,58.16
2023-08-06T18:25:09.554Z,58.22
2023-08-06T18:27:37.413Z,57.58
2023-08-06T18:30:05.048Z,57.85
2023-08-06T18:32:31.934Z,57.60
2023-08-06T18:34:59.371Z,57.03
2023-08-06T18:37:26.389Z,57.21
2023-08-06T18:39:53.146Z,56.82
2023-08-06T18:42:21.201Z,57.68
2023-08-06T18:44:47.929Z,57.72
2023-08-06T18:47:14.641Z,57.23
2023-08-06T18:49:41.588Z,57.77
2023-08-06T18:52:08.545Z,57.53
2023-08-06T18:54:35.261Z,57.87
2023-08-06T18:57:02.179Z,58.41
2023-08-06T18:59:29.250Z,58.41
2023-08-06T19:01:56.137Z,58.18
2023-08-06T19:04:25.266Z,58.05
2023-08-06T19:06:53.224Z,58.14
2023-08-06T19:09:20.911Z,58.17
2023-08-06T19:11:48.725Z,58.68
2023-08-06T19:14:15.653Z,58.51
2023-08-06T19:16:46.843Z,58.56
2023-08-06T19:19:15.041Z,58.15
2023-08-06T19:21:42.807Z,57.91
2023-08-06T19:24:09.612Z,58.61
2023-08-06T19:26:36.518Z,58.29
2023-08-06T19:29:03.490Z,58.55
2023-08-06T19:31:30.460Z,58.41
2023-08-06T19:33:57.461Z,58.27
2023-08-06T19:36:24.200Z,58.34
2023-08-06T19:38:51.225Z,59.29
2023-08-06T19:41:18.060Z,59.60
2023-08-06T19:43:45.423Z,59.63
2023-08-06T19:46:12.398Z,59.77
2023-08-06T19:48:39.452Z,59.48
2023-08-06T19:51:06.267Z,59.42
2023-08-06T19:53:35.300Z,59.85
2023-08-06T19:56:04.320Z,59.43
2023-08-06T19:58:33.724Z,59.97
2023-08-06T20:01:00.746Z,59.88
2023-08-06T20:03:28.127Z,59.42
2023-08-06T20:05:55.911Z,59.66
2023-08-06T20:08:22.703Z,59.59
2023-08-06T20:10:51.353Z,59.24
2023-08-06T20:13:18.214Z,59.67
2023-08-06T20:15:47.436Z,59.32
2023-08-06T20:18:16.158Z,59.68
2023-08-06T20:20:43.269Z,59.55
2023-08-06T20:23:10.194Z,59.07
2023-08-06T20:25:36.959Z,59.44
2023-08-06T20:28:03.881Z,59.15
2023-08-06T20:30:30.779Z,59.27
2023-08-06T20:32:57.724Z,58.90
2023-08-06T20:35:24.535Z,59.26
2023-08-06T20:37:51.413Z,59.44
2023-08-06T20:40:18.701Z,59.48
2023-08-06T20:42:45.733Z,59.40
2023-08-06T20:45:12.378Z,58.98
2023-08-06T20:47:38.985Z,58.82
2023-08-06T20:50:06.516Z,59.12
2023-08-06T20:52:33.260Z,58.88
2023-08-06T20:55:00.108Z,58.58
2023-08-06T20:57:26.767Z,58.57
2023-08-06T20:59:53.346Z,58.35
2023-08-06T21:02:20.450Z,58.16
2023-08-06T21:04:50.099Z,58.31
2023-08-06T21:07:17.148Z,58.34
2023-08-06T21:09:44.410Z,58.78
2023-08-06T21:12:11.244Z,58.30
2023-08-06T21:14:38.165Z,58.40
2023-08-06T21:17:05.493Z,58.86
2023-08-06T21:19:32.834Z,58.96
2023-08-06T21:21:59.554Z,58.99
2023-08-06T21:24:26.445Z,59.20
2023-08-06T21:26:53.250Z,59.05
2023-08-06T21:29:20.017Z,59.02
2023-08-06T21:31:46.699Z,59.19
2023-08-06T21:34:13.578Z,59.19
2023-08-06T21:36:40.968Z,59.33
2023-08-06T21:39:08.282Z,58.88
2023-08-06T21:41:35.125Z,59.16
2023-08-06T21:44:03.091Z,59.03
2023-08-06T21:46:29.982Z,59.01
2023-08-06T21:48:59.964Z,59.34
2023-08-06T21:51:26.748Z,59.25
2023-08-06T21:53:53.505Z,59.15
2023-08-06T21:56:20.536Z,59.10
2023-08-06T21:58:49.744Z,59.61
2023-08-06T22:01:20.922Z,59.21
2023-08-06T22:03:47.917Z,59.17
2023-08-06T22:06:14.885Z,59.56
2023-08-06T22:08:42.722Z,58.94
2023-08-06T22:11:10.386Z,59.27
2023-08-06T22:13:39.333Z,59.14
2023-08-06T22:16:07.306Z,59.45
2023-08-06T22:18:34.326Z,58.82
2023-08-06T22:21:01.114Z,59.25
2023-08-06T22:23:28.003Z,58.88
2023-08-06T22:25:56.682Z,59.33
2023-08-06T22:28:24.552Z,58.75
2023-08-06T22:30:52.052Z,59.16
2023-08-06T22:33:19.781Z,59.13
2023-08-06T22:35:46.952Z,59.35
2023-08-06T22:38:13.908Z,59.07
2023-08-06T22:40:40.645Z,59.14
2023-08-06T22:43:07.309Z,59.12
2023-08-06T22:45:33.941Z,59.23
2023-08-06T22:48:01.027Z,59.14
2023-08-06T22:50:27.893Z,58.77
2023-08-06T22:52:54.665Z,58.98
2023-08-06T22:55:41.231Z,59.22
2023-08-06T22:58:08.900Z,59.19
2023-08-06T23:00:35.849Z,59.46
2023-08-06T23:03:09.834Z,59.06
2023-08-06T23:05:37.525Z,59.24
2023-08-06T23:08:04.419Z,59.33
2023-08-06T23:10:32.697Z,59.34
2023-08-06T23:12:59.558Z,59.05
2023-08-06T23:15:26.261Z,59.45
2023-08-06T23:17:53.338Z,59.35
2023-08-06T23:20:20.466Z,59.71
2023-08-06T23:22:48.204Z,59.38
2023-08-06T23:25:15.374Z,59.61
2023-08-06T23:27:42.522Z,59.88
2023-08-06T23:30:10.898Z,59.37
2023-08-06T23:32:38.797Z,59.61
2023-08-06T23:35:05.839Z,59.14
2023-08-06T23:37:34.362Z,59.52
2023-08-06T23:40:01.404Z,59.68
2023-08-06T23:42:28.274Z,59.54
2023-08-06T23:44:55.091Z,59.14
2023-08-06T23:47:21.908Z,59.42
2023-08-06T23:49:48.802Z,59.36
2023-08-06T23:52:15.461Z,59.61
2023-08-06T23:54:42.257Z,59.57
2023-08-06T23:57:09.063Z,59.65
2023-08-06T23:59:36.042Z,59.33
